Green Oaks, Illinois
Current Conditions -  °F | °C
As of 12:52 AM on Thursday 23 Oct 2014 (Local Time) from KPWK Reporting Station
Clear Clear  
Wind Chill: 37°   Ceiling: Unl
Heat Index: 37°   Visibility: 10mi
Dew Point: 33°   Wind: 0mph
Humidity: 86%   Direction: NA
Pressure: 30.27"   Gusts: NA
Location:  42.2369°N, 87.8684°W
Report Text: KPWK 230552Z AUTO 00000KT 10SM CLR 03/01 A3027 RMK AO2 SLP253 T00280006 10083 20022 401330022 58010
Loading
Personal Weather Stations






























Interactive Weather Map
Tropical Storm Tracking
New forecast layout! Learn more

10-Day Weather Forecast

Advertisements
Track Severe Weather on mobile